Time;durP1;ratioP1;P1;durP2;ratioP2;P2;SDS_P1;SDS_P2;PMS_P1;PMS_P2;Temp;Humidity;BMP_temperature;BMP_pressure;BME280_temperature;BME280_humidity;BME280_pressure;Samples;Min_cycle;Max_cycle;Signal;HPM_P1;HPM_P2
2022/07/16 00:01:46;;;;;;;5.37;2.95;;;;;;;20.99;61.85;99127.40;1699241;83;21108;-86
2022/07/16 00:04:13;;;;;;;16.40;3.83;;;;;;;20.99;62.11;99117.28;1681927;84;21029;-84
2022/07/16 00:06:40;;;;;;;14.07;3.30;;;;;;;20.97;63.47;99102.88;1675278;86;21065;-86
2022/07/16 00:09:07;;;;;;;15.50;3.37;;;;;;;20.95;63.17;99104.77;1714745;83;21077;-87
2022/07/16 00:11:34;;;;;;;11.83;3.62;;;;;;;20.93;63.16;99120.34;1723206;83;21028;-86
2022/07/16 00:14:00;;;;;;;15.85;3.37;;;;;;;20.85;61.83;99116.92;1715553;83;21043;-87
2022/07/16 00:16:27;;;;;;;14.75;2.75;;;;;;;20.79;61.70;99124.77;1729524;83;21023;-85
2022/07/16 00:21:38;;;;;;;8.88;3.52;;;;;;;20.76;63.28;99117.04;1729350;83;21526;-85
2022/07/16 00:24:07;;;;;;;18.70;3.27;;;;;;;20.76;64.33;99115.72;1725395;83;21043;-86
2022/07/16 00:26:34;;;;;;;13.68;3.20;;;;;;;20.77;63.40;99120.07;1729449;83;21566;-86
2022/07/16 00:29:02;;;;;;;5.42;2.95;;;;;;;20.76;64.25;99121.00;1727420;83;20962;-86
2022/07/16 00:31:29;;;;;;;9.18;3.45;;;;;;;20.75;63.98;99115.36;1727563;83;21019;-85
2022/07/16 00:33:55;;;;;;;7.15;3.02;;;;;;;20.80;64.36;99113.23;1725555;83;21020;-85
2022/07/16 00:36:22;;;;;;;8.95;3.40;;;;;;;20.83;64.02;99119.66;1727215;83;21003;-86
2022/07/16 00:38:49;;;;;;;12.18;3.67;;;;;;;20.82;63.74;99121.91;1728374;83;21021;-86
2022/07/16 00:41:18;;;;;;;10.40;3.50;;;;;;;20.82;63.52;99131.16;1718971;83;20984;-86
2022/07/16 00:43:55;;;;;;;9.30;3.67;;;;;;;20.83;63.57;99131.55;1719422;83;21093;-86
2022/07/16 00:46:22;;;;;;;9.13;3.87;;;;;;;20.83;63.08;99130.23;1712922;83;21037;-86
2022/07/16 00:48:49;;;;;;;7.55;4.30;;;;;;;20.77;64.77;99137.23;1726741;83;21047;-85
2022/07/16 00:51:16;;;;;;;8.85;3.92;;;;;;;20.71;63.43;99141.61;1728089;83;21530;-86
2022/07/16 00:53:44;;;;;;;9.68;4.05;;;;;;;20.62;63.75;99127.68;1728147;83;21014;-86
2022/07/16 00:56:14;;;;;;;6.90;3.60;;;;;;;20.51;65.15;99115.13;1728422;83;21539;-86
2022/07/16 00:58:43;;;;;;;9.73;4.10;;;;;;;20.42;64.77;99111.31;1728461;83;20980;-86
2022/07/16 01:01:12;;;;;;;14.15;4.55;;;;;;;20.40;66.60;99107.09;1728215;83;21028;-86
2022/07/16 01:03:41;;;;;;;8.40;3.60;;;;;;;20.37;64.35;99105.95;1728378;83;21003;-86
2022/07/16 01:06:09;;;;;;;10.43;4.42;;;;;;;20.35;65.14;99105.20;1736353;83;21063;-85
2022/07/16 01:08:39;;;;;;;11.45;4.25;;;;;;;20.28;65.38;99107.41;1725804;82;21066;-86
2022/07/16 01:11:09;;;;;;;7.53;4.10;;;;;;;20.25;64.98;99115.52;1725300;82;21026;-85
2022/07/16 01:13:38;;;;;;;9.70;4.00;;;;;;;20.18;64.95;99107.16;1725200;83;20968;-86
2022/07/16 01:16:06;;;;;;;6.83;3.70;;;;;;;20.18;64.50;99101.05;1730117;83;20997;-86
2022/07/16 01:18:34;;;;;;;7.28;3.67;;;;;;;20.12;64.22;99093.05;1728099;83;21055;-85
2022/07/16 01:21:01;;;;;;;10.65;3.42;;;;;;;20.09;64.44;99095.02;1728289;83;21032;-86
2022/07/16 01:23:27;;;;;;;8.80;3.10;;;;;;;20.04;66.26;99092.69;1728176;83;21026;-86
2022/07/16 01:25:55;;;;;;;6.62;3.65;;;;;;;19.97;65.80;99093.54;1728318;83;21062;-86
2022/07/16 01:28:22;;;;;;;9.45;3.30;;;;;;;19.94;65.68;99085.83;1722133;83;21518;-86
2022/07/16 01:30:49;;;;;;;5.80;3.15;;;;;;;19.93;65.64;99081.97;1715725;83;20945;-86
2022/07/16 01:33:30;;;;;;;8.10;3.50;;;;;;;19.90;67.06;99086.98;1715202;83;21035;-85
2022/07/16 01:36:04;;;;;;;10.23;3.30;;;;;;;19.91;65.81;99083.38;1716867;83;21043;-86
2022/07/16 01:38:32;;;;;;;6.62;3.60;;;;;;;19.85;66.23;99082.45;1726951;83;21016;-85
2022/07/16 01:40:59;;;;;;;7.17;3.25;;;;;;;19.83;66.35;99079.06;1721905;83;21039;-86
2022/07/16 01:43:29;;;;;;;8.75;2.85;;;;;;;19.77;66.44;99071.06;1714758;83;21042;-87
2022/07/16 01:45:58;;;;;;;9.28;3.10;;;;;;;19.77;65.59;99075.50;1709643;83;21039;-86
2022/07/16 01:48:26;;;;;;;8.20;3.60;;;;;;;19.67;66.67;99078.67;1728352;83;21066;-86
2022/07/16 01:50:54;;;;;;;8.30;3.45;;;;;;;19.63;66.31;99065.30;1725480;83;20947;-86
2022/07/16 01:53:21;;;;;;;6.83;3.10;;;;;;;19.61;65.72;99059.28;1711372;83;21015;-87
2022/07/16 01:55:48;;;;;;;6.87;3.42;;;;;;;19.56;66.23;99058.74;1728532;83;21040;-86
2022/07/16 01:58:16;;;;;;;6.65;3.10;;;;;;;19.51;66.68;99052.06;1728414;83;21023;-85
2022/07/16 02:00:46;;;;;;;8.43;3.30;;;;;;;19.50;67.25;99068.36;1728485;83;21023;-85
2022/07/16 02:03:13;;;;;;;6.70;3.25;;;;;;;19.47;65.97;99077.28;1726717;83;20985;-86
2022/07/16 02:05:42;;;;;;;6.72;2.90;;;;;;;19.46;66.04;99076.09;1728113;83;21023;-84
2022/07/16 02:08:09;;;;;;;7.30;3.00;;;;;;;19.43;66.05;99075.78;1728106;83;21126;-86
2022/07/16 02:10:37;;;;;;;4.47;2.70;;;;;;;19.39;67.52;99078.23;1714771;83;20999;-86
2022/07/16 02:13:04;;;;;;;8.10;2.90;;;;;;;19.40;66.89;99085.21;1724314;83;21062;-86
2022/07/16 02:15:32;;;;;;;5.75;3.02;;;;;;;19.42;67.16;99089.08;1728695;83;20999;-85
2022/07/16 02:17:58;;;;;;;6.95;3.00;;;;;;;19.38;67.51;99092.37;1728765;83;21042;-85
2022/07/16 02:20:25;;;;;;;4.67;2.58;;;;;;;19.40;66.92;99083.89;1729245;83;20994;-84
2022/07/16 02:22:55;;;;;;;4.97;2.70;;;;;;;19.49;66.68;99090.38;1734831;83;21543;-86
2022/07/16 02:25:22;;;;;;;4.62;2.95;;;;;;;19.54;66.71;99087.00;1734834;82;21071;-85
2022/07/16 02:28:06;;;;;;;6.67;3.25;;;;;;;19.60;66.51;99082.66;1725546;83;21055;-86
2022/07/16 02:30:43;;;;;;;7.40;3.00;;;;;;;19.65;66.35;99079.24;1724605;83;21011;-86
2022/07/16 02:33:13;;;;;;;11.08;3.83;;;;;;;19.70;66.43;99078.14;1724707;83;21046;-86
2022/07/16 02:35:40;;;;;;;12.37;3.47;;;;;;;19.76;66.34;99079.09;1724384;83;21051;-85
2022/07/16 02:38:09;;;;;;;11.78;3.00;;;;;;;19.80;65.47;99076.16;1724117;83;21031;-86
2022/07/16 02:40:37;;;;;;;7.50;2.90;;;;;;;19.76;65.79;99080.41;1725216;83;20996;-85
2022/07/16 02:43:06;;;;;;;6.47;3.05;;;;;;;19.73;66.15;99077.95;1729602;82;21054;-86
2022/07/16 02:45:36;;;;;;;7.12;4.28;;;;;;;19.68;66.27;99075.11;1725045;83;21615;-85
2022/07/16 02:48:03;;;;;;;8.50;3.40;;;;;;;19.62;66.18;99078.13;1715506;83;20972;-86
2022/07/16 02:50:30;;;;;;;7.03;3.25;;;;;;;19.57;66.66;99077.56;1709124;83;20976;-85
2022/07/16 02:52:57;;;;;;;14.18;3.62;;;;;;;19.53;65.81;99078.70;1724859;83;20997;-86
2022/07/16 02:55:24;;;;;;;8.10;3.20;;;;;;;19.50;65.94;99081.54;1724260;83;21020;-85
2022/07/16 02:57:51;;;;;;;6.40;3.40;;;;;;;19.48;66.76;99087.38;1727447;83;20960;-86
2022/07/16 03:00:19;;;;;;;10.70;3.37;;;;;;;19.47;66.50;99081.23;1728309;83;21027;-87
2022/07/16 03:02:46;;;;;;;7.78;3.27;;;;;;;19.44;66.67;99083.24;1728288;83;21047;-86
2022/07/16 03:05:14;;;;;;;5.22;3.12;;;;;;;19.44;66.50;99084.56;1728316;83;21131;-86
2022/07/16 03:07:41;;;;;;;11.03;3.90;;;;;;;19.41;65.89;99076.34;1733062;83;21118;-86
2022/07/16 03:10:11;;;;;;;7.42;3.60;;;;;;;19.40;65.32;99083.05;1696488;83;21016;-86
2022/07/16 03:12:39;;;;;;;6.62;3.55;;;;;;;19.37;66.25;99081.44;1706680;83;21011;-86
2022/07/16 03:15:08;;;;;;;12.35;3.92;;;;;;;19.32;65.79;99083.97;1728393;83;21077;-86
2022/07/16 03:17:35;;;;;;;6.80;3.80;;;;;;;19.28;65.83;99088.13;1713313;83;22459;-86
2022/07/16 03:20:02;;;;;;;6.60;3.75;;;;;;;19.24;65.95;99083.98;1724218;83;21023;-86
2022/07/16 03:22:29;;;;;;;7.70;3.47;;;;;;;19.21;66.26;99088.11;1729524;83;20944;-86
2022/07/16 03:24:55;;;;;;;8.15;3.47;;;;;;;19.18;66.42;99086.13;1724338;83;21015;-85
2022/07/16 03:27:22;;;;;;;11.43;4.03;;;;;;;19.15;67.20;99088.48;1725403;83;21026;-86
2022/07/16 03:29:49;;;;;;;9.35;3.37;;;;;;;19.20;66.89;99098.73;1724487;83;21050;-86
2022/07/16 03:32:15;;;;;;;5.10;3.02;;;;;;;19.13;67.66;99089.53;1697393;83;21023;-86
2022/07/16 03:34:42;;;;;;;6.40;3.47;;;;;;;19.13;67.46;99089.53;1682138;85;21015;-84
2022/07/16 03:37:09;;;;;;;9.23;3.50;;;;;;;19.14;67.48;99092.53;1725735;83;21023;-86
2022/07/16 03:39:35;;;;;;;8.35;3.40;;;;;;;19.09;67.22;99092.81;1697353;84;21027;-85
2022/07/16 03:42:02;;;;;;;6.03;3.22;;;;;;;19.07;67.90;99094.22;1729492;82;21055;-86
2022/07/16 03:44:29;;;;;;;13.28;4.00;;;;;;;19.05;68.11;99094.78;1696445;83;21586;-86
2022/07/16 03:46:56;;;;;;;12.10;3.42;;;;;;;19.03;68.03;99106.36;1725531;83;21035;-86
2022/07/16 03:49:23;;;;;;;7.50;3.70;;;;;;;19.02;67.35;99104.20;1725346;83;21096;-85
2022/07/16 03:51:49;;;;;;;10.25;3.33;;;;;;;19.04;67.15;99099.69;1712240;83;20982;-86
2022/07/16 03:54:16;;;;;;;6.15;3.15;;;;;;;19.03;67.38;99086.59;1712935;83;21050;-86
2022/07/16 03:56:42;;;;;;;5.58;3.00;;;;;;;19.07;67.00;99088.11;1695041;85;21090;-85
2022/07/16 03:59:10;;;;;;;8.40;3.35;;;;;;;19.00;67.42;99089.41;1706341;84;21036;-86
2022/07/16 04:01:39;;;;;;;5.50;2.95;;;;;;;19.02;66.69;99104.20;1706267;84;21055;-86
2022/07/16 04:04:05;;;;;;;4.95;2.50;;;;;;;19.00;67.71;99106.08;1700552;84;21056;-86
2022/07/16 04:06:32;;;;;;;4.65;2.92;;;;;;;19.04;67.25;99106.75;1704154;83;21047;-85
2022/07/16 04:08:59;;;;;;;9.25;3.37;;;;;;;19.08;67.05;99100.36;1716329;83;21045;-86
2022/07/16 04:11:25;;;;;;;6.30;3.37;;;;;;;19.15;67.02;99099.51;1717809;83;21626;-86
2022/07/16 04:13:52;;;;;;;10.35;2.92;;;;;;;19.23;66.56;99102.05;1729514;83;21035;-85
2022/07/16 04:16:19;;;;;;;5.22;2.85;;;;;;;19.32;66.06;99100.66;1724505;83;21071;-86
2022/07/16 04:18:46;;;;;;;7.17;2.90;;;;;;;19.44;65.57;99100.38;1733132;83;21015;-86
2022/07/16 04:21:12;;;;;;;8.33;3.05;;;;;;;19.55;65.01;99101.86;1718534;82;20993;-86
2022/07/16 04:23:39;;;;;;;5.33;2.80;;;;;;;19.61;64.21;99090.92;1711769;82;21015;-86
2022/07/16 04:26:05;;;;;;;5.83;3.05;;;;;;;19.73;64.09;99091.98;1707463;83;21094;-86
2022/07/16 04:28:32;;;;;;;4.22;2.62;;;;;;;19.81;63.47;99094.98;1726276;83;20970;-85
2022/07/16 04:30:59;;;;;;;7.87;2.80;;;;;;;19.88;63.33;99095.46;1714963;83;21050;-84
2022/07/16 04:33:25;;;;;;;9.63;3.20;;;;;;;19.96;62.96;99099.77;1728647;83;21025;-82
2022/07/16 04:35:52;;;;;;;5.15;2.65;;;;;;;19.96;63.11;99103.73;1713237;83;20988;-85
2022/07/16 04:38:20;;;;;;;7.42;2.60;;;;;;;19.96;62.97;99098.45;1724564;83;21019;-86
2022/07/16 04:40:47;;;;;;;7.97;2.87;;;;;;;20.04;62.87;99109.36;1726619;83;20998;-85
2022/07/16 04:43:13;;;;;;;8.10;3.40;;;;;;;20.10;62.54;99104.66;1719674;83;21499;-85
2022/07/16 04:45:40;;;;;;;11.05;2.90;;;;;;;20.10;62.54;99108.61;1729160;83;21049;-85
2022/07/16 04:48:07;;;;;;;8.88;2.37;;;;;;;20.10;62.49;99113.41;1728517;83;21007;-87
2022/07/16 04:50:34;;;;;;;5.80;2.77;;;;;;;20.15;62.51;99112.62;1730195;83;20987;-86
2022/07/16 04:53:01;;;;;;;6.85;3.00;;;;;;;20.20;62.25;99110.55;1698561;83;21124;-86
2022/07/16 04:55:27;;;;;;;5.30;2.50;;;;;;;20.29;61.80;99113.05;1715967;83;21034;-86
2022/07/16 04:57:54;;;;;;;5.22;2.92;;;;;;;20.32;61.63;99098.34;1727390;83;21329;-86
2022/07/16 05:00:21;;;;;;;7.25;2.90;;;;;;;20.27;61.42;99105.70;1695592;83;22081;-86
2022/07/16 05:03:06;;;;;;;4.25;2.37;;;;;;;20.32;61.15;99112.03;1699686;83;21066;-87
2022/07/16 05:05:20;;;;;;;6.80;2.90;;;;;;;20.37;60.67;99111.23;1722586;83;20939;-86
2022/07/16 05:07:49;;;;;;;6.37;3.58;;;;;;;20.27;60.25;99114.95;1729978;83;21112;-86
2022/07/16 05:10:16;;;;;;;5.97;2.70;;;;;;;20.28;60.04;99113.17;1729862;83;21027;-86
2022/07/16 05:12:43;;;;;;;4.50;2.60;;;;;;;20.32;60.01;99113.34;1730206;83;21406;-86
2022/07/16 05:15:10;;;;;;;5.50;2.67;;;;;;;20.30;60.10;99122.68;1724198;83;21317;-85
2022/07/16 05:17:36;;;;;;;5.67;2.90;;;;;;;20.30;60.06;99122.68;1729462;83;21059;-86
2022/07/16 05:20:05;;;;;;;6.58;3.10;;;;;;;20.28;60.15;99122.41;1725966;83;21050;-85
2022/07/16 05:22:32;;;;;;;8.70;2.92;;;;;;;20.34;60.03;99131.25;1728240;83;20970;-86
2022/07/16 05:24:58;;;;;;;5.83;2.95;;;;;;;20.33;59.90;99124.27;1724323;83;21015;-84
2022/07/16 05:27:25;;;;;;;8.13;3.10;;;;;;;20.30;59.86;99125.32;1718545;83;21063;-86
2022/07/16 05:29:52;;;;;;;6.97;3.60;;;;;;;20.26;59.97;99131.75;1733770;82;20999;-86
2022/07/16 05:32:18;;;;;;;6.67;3.00;;;;;;;20.22;60.05;99126.29;1703302;83;21019;-84
2022/07/16 05:34:45;;;;;;;9.43;3.40;;;;;;;20.23;60.19;99129.29;1725244;83;21067;-86
2022/07/16 05:37:11;;;;;;;6.83;2.92;;;;;;;20.31;59.98;99138.88;1725154;83;21023;-87
2022/07/16 05:39:38;;;;;;;7.72;3.27;;;;;;;20.24;59.98;99131.00;1725118;83;21078;-86
2022/07/16 05:42:05;;;;;;;6.25;3.05;;;;;;;20.28;59.86;99138.25;1728359;83;21577;-87
2022/07/16 05:44:31;;;;;;;9.75;3.30;;;;;;;20.32;59.64;99139.27;1728172;83;21074;-85
2022/07/16 05:46:58;;;;;;;6.42;3.05;;;;;;;20.37;59.49;99130.59;1726027;83;21503;-86
2022/07/16 05:49:24;;;;;;;7.12;3.40;;;;;;;20.44;59.14;99127.91;1728279;83;21010;-86
2022/07/16 05:51:51;;;;;;;9.25;3.00;;;;;;;20.53;58.95;99133.53;1728319;83;20983;-87
2022/07/16 05:54:18;;;;;;;8.65;3.55;;;;;;;20.60;58.72;99133.55;1728145;83;20998;-85
2022/07/16 05:56:45;;;;;;;7.58;2.95;;;;;;;20.66;58.50;99133.13;1727987;83;21018;-86
2022/07/16 05:59:11;;;;;;;7.92;2.52;;;;;;;20.77;58.11;99133.28;1714575;83;21001;-86
2022/07/16 06:01:38;;;;;;;6.30;2.60;;;;;;;20.86;57.91;99137.09;1719420;83;21091;-86
2022/07/16 06:04:04;;;;;;;8.18;3.05;;;;;;;20.96;57.72;99140.80;1718562;83;20975;-87
2022/07/16 06:06:31;;;;;;;5.10;2.60;;;;;;;21.09;57.08;99147.45;1727659;83;21047;-87
2022/07/16 06:08:57;;;;;;;6.45;2.60;;;;;;;21.15;56.58;99144.38;1728860;83;21493;-86
2022/07/16 06:11:24;;;;;;;5.45;2.42;;;;;;;21.29;56.51;99145.22;1724888;83;21002;-87
2022/07/16 06:13:50;;;;;;;5.92;2.90;;;;;;;21.36;56.26;99144.70;1712383;83;20948;-88
2022/07/16 06:16:18;;;;;;;8.85;2.67;;;;;;;21.48;55.70;99161.55;1720696;83;21090;-87
2022/07/16 06:18:45;;;;;;;8.90;3.20;;;;;;;21.59;55.05;99148.44;1727377;83;21050;-87
2022/07/16 06:21:12;;;;;;;8.13;2.90;;;;;;;21.64;54.49;99148.11;1727368;83;21007;-87
2022/07/16 06:23:38;;;;;;;5.78;3.00;;;;;;;21.71;54.25;99152.52;1727372;83;21495;-87
2022/07/16 06:26:05;;;;;;;5.75;2.50;;;;;;;21.75;53.81;99161.92;1711825;83;21012;-88
2022/07/16 06:28:32;;;;;;;5.12;2.70;;;;;;;21.79;53.54;99166.05;1716555;83;21046;-87
2022/07/16 06:30:58;;;;;;;10.15;3.00;;;;;;;21.84;53.86;99161.25;1733435;83;21089;-87
2022/07/16 06:33:25;;;;;;;6.83;3.02;;;;;;;21.89;52.93;99165.76;1724603;83;21014;-86
2022/07/16 06:35:52;;;;;;;4.90;2.83;;;;;;;21.96;52.29;99164.84;1733134;83;21001;-87
2022/07/16 06:38:19;;;;;;;6.12;2.72;;;;;;;22.07;52.34;99170.70;1696472;84;21008;-87
2022/07/16 06:40:46;;;;;;;7.87;2.70;;;;;;;22.17;51.54;99169.92;1720895;83;21111;-87
2022/07/16 06:43:13;;;;;;;6.08;2.30;;;;;;;22.27;51.03;99164.84;1713635;83;21052;-87
2022/07/16 06:45:44;;;;;;;6.15;2.87;;;;;;;22.38;50.29;99171.55;1733309;83;20988;-87
2022/07/16 06:48:11;;;;;;;7.08;2.72;;;;;;;22.47;50.01;99182.42;1720400;83;21052;-87
2022/07/16 06:50:38;;;;;;;5.20;2.37;;;;;;;22.58;48.24;99179.81;1727113;83;20995;-87
2022/07/16 06:53:05;;;;;;;5.92;2.50;;;;;;;22.69;48.09;99183.02;1733895;83;21039;-87
2022/07/16 06:55:32;;;;;;;6.08;2.33;;;;;;;22.80;47.27;99194.97;1733659;83;21523;-88
2022/07/16 06:57:59;;;;;;;4.90;2.50;;;;;;;22.89;45.91;99196.95;1733604;83;21006;-88
2022/07/16 07:00:25;;;;;;;5.90;2.40;;;;;;;22.99;45.21;99194.46;1719716;82;20983;-86
2022/07/16 07:02:52;;;;;;;10.25;2.40;;;;;;;23.12;44.54;99197.05;1703540;83;21021;-87
2022/07/16 07:05:19;;;;;;;6.33;2.80;;;;;;;23.21;44.30;99204.33;1727823;83;21056;-87
2022/07/16 07:07:46;;;;;;;7.40;2.22;;;;;;;23.34;43.76;99193.64;1726165;83;21078;-87
2022/07/16 07:10:13;;;;;;;4.20;2.12;;;;;;;23.41;42.11;99201.48;1708105;83;20989;-87
2022/07/16 07:12:40;;;;;;;8.30;2.30;;;;;;;23.48;41.62;99204.53;1727914;83;20994;-86
2022/07/16 07:15:09;;;;;;;5.20;2.10;;;;;;;23.62;42.61;99201.65;1723030;83;21503;-87
2022/07/16 07:17:36;;;;;;;5.22;2.00;;;;;;;23.75;42.22;99201.03;1710336;83;21000;-85
2022/07/16 07:20:06;;;;;;;5.40;1.75;;;;;;;23.84;40.27;99210.63;1731334;83;20971;-87
2022/07/16 07:22:33;;;;;;;4.92;2.08;;;;;;;23.97;40.90;99208.68;1731551;82;21067;-87
2022/07/16 07:25:00;;;;;;;8.05;2.75;;;;;;;24.00;40.10;99203.14;1694849;84;21026;-87
2022/07/16 07:27:26;;;;;;;5.03;1.87;;;;;;;24.04;39.45;99215.70;1733901;83;21059;-86
2022/07/16 07:29:53;;;;;;;4.58;1.87;;;;;;;24.06;38.88;99216.42;1709387;83;21076;-87
2022/07/16 07:32:20;;;;;;;4.55;1.80;;;;;;;24.12;38.89;99230.05;1704590;83;21028;-87
2022/07/16 07:34:47;;;;;;;7.22;1.98;;;;;;;24.17;38.77;99235.85;1719280;83;21074;-86
2022/07/16 07:37:13;;;;;;;4.58;1.98;;;;;;;24.22;39.02;99240.79;1702794;83;20995;-87
2022/07/16 07:39:40;;;;;;;5.75;2.10;;;;;;;24.21;37.83;99251.04;1703175;84;21107;-87
2022/07/16 07:42:07;;;;;;;6.15;2.20;;;;;;;24.30;39.03;99242.34;1718979;82;20972;-87
2022/07/16 07:44:34;;;;;;;7.37;2.08;;;;;;;24.25;39.35;99255.14;1703643;83;20981;-87
2022/07/16 07:47:00;;;;;;;5.95;2.00;;;;;;;24.10;38.82;99252.39;1722517;83;21054;-88
2022/07/16 07:49:27;;;;;;;6.28;1.80;;;;;;;24.07;39.12;99249.96;1745843;82;21011;-87
2022/07/16 07:51:54;;;;;;;5.28;2.15;;;;;;;23.97;39.71;99261.33;1739845;82;20988;-88
2022/07/16 07:54:21;;;;;;;7.35;1.80;;;;;;;23.82;39.16;99270.47;1715386;83;21034;-88
2022/07/16 07:56:49;;;;;;;6.45;2.17;;;;;;;23.71;40.23;99270.41;1717551;83;21039;-87
2022/07/16 07:59:16;;;;;;;4.87;2.10;;;;;;;23.60;40.28;99271.25;1726054;82;20995;-87
2022/07/16 08:01:43;;;;;;;13.80;2.22;;;;;;;23.47;40.50;99271.31;1716765;83;21039;-88
2022/07/16 08:04:09;;;;;;;10.23;2.10;;;;;;;23.29;40.63;99281.99;1712342;83;21039;-87
2022/07/16 08:06:37;;;;;;;9.60;2.40;;;;;;;23.05;41.09;99278.88;1678772;84;21082;-87
2022/07/16 08:09:04;;;;;;;12.18;2.22;;;;;;;22.89;41.49;99287.08;1730363;83;20967;-86
2022/07/16 08:11:31;;;;;;;10.68;2.80;;;;;;;22.63;42.02;99296.92;1745179;82;21042;-87
2022/07/16 08:13:57;;;;;;;6.35;2.37;;;;;;;22.39;42.59;99301.69;1738205;82;21031;-87
2022/07/16 08:16:24;;;;;;;6.80;2.30;;;;;;;22.06;43.59;99320.73;1733650;83;21045;-87
2022/07/16 08:18:51;;;;;;;3.55;2.00;;;;;;;22.05;43.66;99312.44;1735547;82;21418;-87
2022/07/16 08:21:18;;;;;;;11.57;1.90;;;;;;;21.66;44.79;99326.10;1738814;82;21023;-87
2022/07/16 08:26:30;;;;;;;5.45;2.30;;;;;;;21.16;46.62;99340.85;1736056;83;21027;-87
2022/07/16 08:28:56;;;;;;;6.97;2.25;;;;;;;21.07;46.81;99362.13;1715428;83;21010;-87
2022/07/16 08:31:23;;;;;;;10.75;2.98;;;;;;;20.98;47.34;99367.99;1726234;83;21023;-87
2022/07/16 08:33:50;;;;;;;7.10;2.17;;;;;;;20.86;48.03;99368.30;1693992;83;21042;-87
2022/07/16 08:36:16;;;;;;;8.70;2.60;;;;;;;20.90;48.06;99368.48;1725152;83;20999;-86
2022/07/16 08:38:43;;;;;;;5.17;2.30;;;;;;;20.82;49.32;99364.99;1709241;83;21144;-87
2022/07/16 08:41:11;;;;;;;7.67;2.35;;;;;;;20.73;49.91;99372.65;1725148;83;21042;-86
2022/07/16 08:43:38;;;;;;;5.20;2.17;;;;;;;20.68;49.81;99376.06;1729725;83;21047;-86
2022/07/16 08:46:05;;;;;;;5.58;2.12;;;;;;;20.65;49.48;99366.06;1724548;83;21003;-87
2022/07/16 08:48:32;;;;;;;5.03;2.20;;;;;;;20.69;49.31;99365.41;1729679;83;21067;-87
2022/07/16 08:51:01;;;;;;;4.25;2.05;;;;;;;20.74;49.00;99366.44;1725777;83;21495;-87
2022/07/16 08:53:31;;;;;;;4.58;1.90;;;;;;;20.79;49.24;99363.88;1725605;83;21042;-86
2022/07/16 08:56:00;;;;;;;3.95;2.47;;;;;;;20.91;48.77;99366.23;1722559;83;21479;-88
2022/07/16 08:58:31;;;;;;;4.05;1.98;;;;;;;20.93;48.39;99366.10;1738265;83;21613;-87
2022/07/16 09:00:59;;;;;;;6.33;2.37;;;;;;;21.00;48.18;99361.66;1705861;83;21031;-87
2022/07/16 09:03:26;;;;;;;7.17;2.27;;;;;;;21.09;48.07;99363.33;1719809;83;21053;-86
2022/07/16 09:05:53;;;;;;;3.35;1.77;;;;;;;21.22;47.68;99353.19;1727300;83;22120;-88
2022/07/16 09:08:20;;;;;;;7.75;2.58;;;;;;;21.20;48.19;99356.41;1737910;83;21077;-87
2022/07/16 09:10:47;;;;;;;4.53;2.15;;;;;;;21.28;48.60;99361.67;1738425;83;21067;-86
2022/07/16 09:13:14;;;;;;;5.67;1.95;;;;;;;21.34;48.67;99346.25;1738391;82;21034;-86
2022/07/16 09:15:43;;;;;;;6.08;2.30;;;;;;;21.38;48.58;99353.52;1738463;82;20976;-86
2022/07/16 09:18:25;;;;;;;5.30;2.12;;;;;;;21.30;48.56;99345.23;1735162;82;20999;-86
2022/07/16 09:21:00;;;;;;;9.25;2.10;;;;;;;21.29;49.59;99336.91;1734016;82;21007;-87
2022/07/16 09:23:31;;;;;;;6.22;2.30;;;;;;;21.38;49.92;99340.29;1700585;84;21019;-87
2022/07/16 09:26:02;;;;;;;6.33;2.50;;;;;;;21.41;50.11;99342.75;1709321;83;21056;-86
2022/07/16 09:28:51;;;;;;;5.92;2.50;;;;;;;21.40;50.21;99337.91;1701627;84;21032;-87
2022/07/16 09:31:40;;;;;;;4.67;2.15;;;;;;;21.47;49.95;99333.56;1725427;83;21051;-88
2022/07/16 09:34:12;;;;;;;5.15;2.02;;;;;;;21.49;49.81;99328.57;1704479;84;21102;-87
2022/07/16 09:36:43;;;;;;;4.60;2.45;;;;;;;21.53;49.72;99326.09;1698146;85;21051;-88
2022/07/16 09:39:09;;;;;;;5.15;2.33;;;;;;;21.56;49.15;99316.61;1716229;83;21035;-87
2022/07/16 09:41:47;;;;;;;3.30;2.17;;;;;;;21.55;49.02;99324.19;1725422;83;21068;-88
2022/07/16 09:44:24;;;;;;;4.08;2.15;;;;;;;21.63;48.86;99314.42;1726103;83;21138;-87
2022/07/16 09:47:06;;;;;;;4.80;1.90;;;;;;;21.60;48.28;99318.09;1734087;81;21292;-88
2022/07/16 09:49:36;;;;;;;5.25;2.15;;;;;;;21.54;48.00;99325.13;1726417;82;21035;-86
2022/07/16 09:52:05;;;;;;;4.37;2.00;;;;;;;21.53;47.99;99316.83;1726142;82;21011;-83
2022/07/16 09:54:35;;;;;;;4.97;2.30;;;;;;;21.51;47.84;99308.64;1734485;81;21024;-85
2022/07/16 09:57:18;;;;;;;5.67;2.02;;;;;;;21.58;47.50;99304.12;1726315;82;21084;-85
2022/07/16 09:59:46;;;;;;;7.95;3.00;;;;;;;21.65;47.58;99303.27;1734012;83;21013;-86
2022/07/16 10:02:14;;;;;;;6.92;2.12;;;;;;;21.75;47.27;99298.19;1687026;84;21138;-87
2022/07/16 10:04:41;;;;;;;5.30;2.20;;;;;;;21.84;46.52;99296.22;1721509;83;20984;-86
2022/07/16 10:07:08;;;;;;;5.58;1.70;;;;;;;21.92;46.91;99291.25;1727703;83;21115;-87
2022/07/16 10:09:35;;;;;;;4.67;1.80;;;;;;;22.00;47.02;99284.10;1712464;83;21103;-87
2022/07/16 10:12:08;;;;;;;4.90;1.98;;;;;;;22.10;47.14;99265.30;1727772;83;20992;-86
2022/07/16 10:14:37;;;;;;;3.85;2.00;;;;;;;22.16;46.82;99268.86;1717174;83;20992;-87
2022/07/16 10:17:18;;;;;;;5.17;2.08;;;;;;;22.30;46.48;99279.81;1733392;82;21514;-87
2022/07/16 10:19:48;;;;;;;3.47;2.20;;;;;;;22.45;46.56;99273.92;1701112;83;21093;-86
2022/07/16 10:22:22;;;;;;;4.72;1.87;;;;;;;22.62;45.75;99273.56;1680191;85;21582;-86
2022/07/16 10:24:54;;;;;;;6.35;1.95;;;;;;;22.69;45.01;99264.68;1704909;84;20971;-87
2022/07/16 10:27:32;;;;;;;6.87;2.23;;;;;;;22.79;45.24;99264.37;1726668;83;21022;-86
2022/07/16 10:30:25;;;;;;;3.87;2.17;;;;;;;22.84;45.40;99267.55;1726956;83;21419;-86
2022/07/16 10:33:06;;;;;;;6.80;1.90;;;;;;;22.88;45.33;99251.40;1726487;83;21506;-86
2022/07/16 10:35:47;;;;;;;8.53;2.42;;;;;;;23.04;45.91;99249.36;1727637;83;21037;-87
2022/07/16 10:38:21;;;;;;;5.28;2.00;;;;;;;23.13;46.22;99242.02;1713252;83;21007;-87
2022/07/16 10:41:09;;;;;;;6.10;2.27;;;;;;;23.21;46.34;99227.70;1711092;83;21011;-87
2022/07/16 10:43:37;;;;;;;4.17;1.92;;;;;;;23.27;46.13;99231.70;1707952;83;21007;-86
2022/07/16 10:46:09;;;;;;;5.03;1.98;;;;;;;23.37;46.31;99223.90;1699442;83;21051;-87
2022/07/16 10:48:44;;;;;;;3.70;1.98;;;;;;;23.53;45.49;99209.81;1714161;83;21042;-87
2022/07/16 10:51:23;;;;;;;4.50;2.00;;;;;;;23.66;45.22;99209.73;1726546;83;21011;-87
2022/07/16 10:54:18;;;;;;;4.87;2.30;;;;;;;23.75;44.09;99197.05;1708686;83;21079;-87
2022/07/16 10:56:48;;;;;;;7.72;2.10;;;;;;;23.85;43.67;99198.54;1709621;83;21090;-87
2022/07/16 10:59:22;;;;;;;7.70;2.20;;;;;;;23.87;43.57;99191.30;1719205;83;21069;-86
2022/07/16 11:01:53;;;;;;;5.00;1.95;;;;;;;23.97;43.16;99188.77;1708667;83;21460;-85
2022/07/16 11:04:34;;;;;;;4.97;1.85;;;;;;;24.13;43.47;99200.34;1705406;83;21026;-87
2022/07/16 11:07:04;;;;;;;4.95;2.62;;;;;;;24.25;42.73;99190.55;1712495;83;21046;-87
2022/07/16 11:09:34;;;;;;;4.53;2.00;;;;;;;24.41;42.52;99186.55;1726099;83;21003;-87
2022/07/16 11:12:22;;;;;;;5.25;1.92;;;;;;;24.54;42.11;99192.22;1726263;83;21040;-86
2022/07/16 11:14:55;;;;;;;5.78;2.30;;;;;;;24.59;42.02;99184.70;1723275;83;21432;-86
2022/07/16 11:17:25;;;;;;;9.13;2.72;;;;;;;24.64;41.36;99194.97;1717274;83;21041;-87
2022/07/16 11:19:55;;;;;;;6.42;2.30;;;;;;;24.74;41.52;99175.96;1729790;82;20999;-86
2022/07/16 11:22:29;;;;;;;6.35;2.00;;;;;;;24.93;40.82;99177.92;1702979;84;21043;-87
2022/07/16 11:25:03;;;;;;;3.85;1.55;;;;;;;25.11;40.88;99179.06;1720924;83;20996;-87
2022/07/16 11:27:37;;;;;;;5.78;2.17;;;;;;;25.19;40.43;99183.24;1708673;83;21062;-86
2022/07/16 11:30:08;;;;;;;3.98;1.90;;;;;;;25.25;40.44;99173.94;1717208;83;21146;-87
2022/07/16 11:32:43;;;;;;;4.45;2.30;;;;;;;25.34;39.76;99175.80;1705520;83;21065;-85
2022/07/16 11:35:10;;;;;;;5.75;2.27;;;;;;;25.41;40.08;99177.47;1701869;84;21098;-87
2022/07/16 11:37:56;;;;;;;4.25;2.10;;;;;;;25.49;40.21;99178.14;1691574;83;20964;-86
2022/07/16 11:40:35;;;;;;;5.10;1.90;;;;;;;25.60;40.27;99172.72;1723942;83;21027;-85
2022/07/16 11:43:03;;;;;;;6.90;2.33;;;;;;;25.69;39.28;99172.43;1725225;83;21087;-86
2022/07/16 11:45:41;;;;;;;4.95;2.00;;;;;;;25.79;39.68;99173.31;1722231;83;21035;-87